createdAt,value
2023-07-06T00:00:11.944Z,602.00
2023-07-06T00:01:11.951Z,601.00
2023-07-06T00:02:11.960Z,606.00
2023-07-06T00:03:11.994Z,602.00
2023-07-06T00:04:12.017Z,604.00
2023-07-06T00:05:11.999Z,605.00
2023-07-06T00:06:11.989Z,605.00
2023-07-06T00:07:12.018Z,605.00
2023-07-06T00:08:11.981Z,601.00
2023-07-06T00:09:11.990Z,602.00
2023-07-06T00:10:12.022Z,601.00
2023-07-06T00:11:12.056Z,605.00
2023-07-06T00:12:12.045Z,603.00
2023-07-06T00:13:12.067Z,604.00
2023-07-06T00:14:12.036Z,601.00
2023-07-06T00:15:12.047Z,603.00
2023-07-06T00:16:12.085Z,601.00
2023-07-06T00:17:12.092Z,607.00
2023-07-06T00:18:12.051Z,605.00
2023-07-06T00:19:12.039Z,603.00
2023-07-06T00:20:12.065Z,603.00
2023-07-06T00:21:12.084Z,605.00
2023-07-06T00:22:12.104Z,605.00
2023-07-06T00:23:12.148Z,604.00
2023-07-06T00:24:12.120Z,602.00
2023-07-06T00:25:12.111Z,602.00
2023-07-06T00:26:12.121Z,602.00
2023-07-06T00:27:12.166Z,604.00
2023-07-06T00:28:12.134Z,605.00
2023-07-06T00:29:12.142Z,605.00
2023-07-06T00:30:12.138Z,604.00
2023-07-06T00:31:12.230Z,607.00
2023-07-06T00:32:12.164Z,605.00
2023-07-06T00:33:12.186Z,603.00
2023-07-06T00:34:12.184Z,600.00
2023-07-06T00:35:12.197Z,603.00
2023-07-06T00:36:12.278Z,604.00
2023-07-06T00:37:12.255Z,607.00
2023-07-06T00:38:12.272Z,601.00
2023-07-06T00:39:12.272Z,604.00
2023-07-06T00:40:12.235Z,600.00
2023-07-06T00:41:12.237Z,601.00
2023-07-06T00:42:12.300Z,606.00
2023-07-06T00:43:12.308Z,601.00
2023-07-06T00:44:12.341Z,608.00
2023-07-06T00:45:12.321Z,605.00
2023-07-06T00:46:12.375Z,608.00
2023-07-06T00:47:12.356Z,603.00
2023-07-06T00:49:27.797Z,600.00
2023-07-06T00:50:27.706Z,600.00
2023-07-06T00:51:27.707Z,600.00
2023-07-06T00:52:27.653Z,600.00
2023-07-06T00:53:27.657Z,600.00
2023-07-06T00:54:27.634Z,600.00
2023-07-06T00:55:27.620Z,603.00
2023-07-06T00:56:27.633Z,604.00
2023-07-06T00:57:27.633Z,601.00
2023-07-06T00:58:27.591Z,603.00
2023-07-06T00:59:27.566Z,603.00
2023-07-06T01:00:27.581Z,601.00
2023-07-06T01:01:27.571Z,603.00
2023-07-06T01:02:27.576Z,602.00
2023-07-06T01:03:27.656Z,602.00
2023-07-06T01:04:27.559Z,607.00
2023-07-06T01:05:27.549Z,603.00
2023-07-06T01:06:27.509Z,604.00
2023-07-06T01:07:27.533Z,608.00
2023-07-06T01:08:27.495Z,603.00
2023-07-06T01:09:27.480Z,600.00
2023-07-06T01:10:27.497Z,604.00
2023-07-06T01:11:27.449Z,605.00
2023-07-06T01:12:27.436Z,605.00
2023-07-06T01:13:27.460Z,601.00
2023-07-06T01:14:27.398Z,604.00
2023-07-06T01:15:27.424Z,602.00
2023-07-06T01:16:27.377Z,605.00
2023-07-06T01:17:27.429Z,606.00
2023-07-06T01:18:27.352Z,605.00
2023-07-06T01:19:27.326Z,602.00
2023-07-06T01:20:27.456Z,604.00
2023-07-06T01:21:27.313Z,603.00
2023-07-06T01:22:27.304Z,602.00
2023-07-06T01:23:27.302Z,600.00
2023-07-06T01:24:27.303Z,600.00
2023-07-06T01:25:27.271Z,605.00
2023-07-06T01:26:27.277Z,601.00
2023-07-06T01:27:27.359Z,600.00
2023-07-06T01:28:27.381Z,607.00
2023-07-06T01:29:27.495Z,606.00
2023-07-06T01:30:27.501Z,603.00
2023-07-06T01:31:27.627Z,602.00
2023-07-06T01:32:27.641Z,606.00
2023-07-06T01:33:27.638Z,604.00
2023-07-06T01:34:27.730Z,605.00
2023-07-06T01:35:27.757Z,603.00
2023-07-06T01:36:27.791Z,602.00
2023-07-06T01:37:27.852Z,605.00
2023-07-06T01:38:27.888Z,601.00
2023-07-06T01:39:27.944Z,603.00
2023-07-06T01:40:27.994Z,600.00
2023-07-06T01:41:28.075Z,602.00
2023-07-06T01:42:28.083Z,603.00
2023-07-06T01:43:28.134Z,600.00
2023-07-06T01:44:28.208Z,605.00
2023-07-06T01:45:28.274Z,607.00
2023-07-06T01:46:28.327Z,603.00
2023-07-06T01:47:28.410Z,604.00
2023-07-06T01:48:28.427Z,605.00
2023-07-06T01:49:28.449Z,600.00
2023-07-06T01:50:28.524Z,601.00
2023-07-06T01:51:28.569Z,604.00
2023-07-06T01:52:30.008Z,604.00
2023-07-06T01:53:28.647Z,605.00
2023-07-06T01:54:28.705Z,605.00
2023-07-06T01:55:28.807Z,605.00
2023-07-06T01:56:28.828Z,600.00
2023-07-06T01:57:28.885Z,607.00
2023-07-06T01:58:28.940Z,604.00
2023-07-06T01:59:28.996Z,604.00
2023-07-06T02:00:29.075Z,606.00
2023-07-06T02:01:29.203Z,607.00
2023-07-06T02:02:29.280Z,601.00
2023-07-06T02:03:29.176Z,602.00
2023-07-06T02:04:29.369Z,604.00
2023-07-06T02:05:29.394Z,600.00
2023-07-06T02:06:29.343Z,600.00
2023-07-06T02:07:29.419Z,604.00
2023-07-06T02:08:29.458Z,604.00
2023-07-06T02:09:29.507Z,604.00
2023-07-06T02:10:29.555Z,604.00
2023-07-06T02:11:29.627Z,604.00
2023-07-06T02:12:29.711Z,605.00
2023-07-06T02:13:29.811Z,603.00
2023-07-06T02:14:29.787Z,604.00
2023-07-06T02:15:29.821Z,604.00
2023-07-06T02:16:29.947Z,604.00
2023-07-06T02:17:30.015Z,606.00
2023-07-06T02:18:30.024Z,602.00
2023-07-06T02:19:30.045Z,600.00
2023-07-06T02:20:30.128Z,604.00
2023-07-06T02:21:30.161Z,604.00
2023-07-06T02:22:30.214Z,608.00
2023-07-06T02:23:30.255Z,606.00
2023-07-06T02:24:30.311Z,604.00
2023-07-06T02:25:30.364Z,606.00
2023-07-06T02:26:30.392Z,600.00
2023-07-06T02:27:30.470Z,606.00
2023-07-06T02:28:30.525Z,603.00
2023-07-06T02:29:30.599Z,602.00
2023-07-06T02:30:30.654Z,601.00
2023-07-06T02:31:30.670Z,608.00
2023-07-06T02:32:30.757Z,605.00
2023-07-06T02:33:30.787Z,607.00
2023-07-06T02:34:30.853Z,602.00
2023-07-06T02:35:30.925Z,603.00
2023-07-06T02:36:31.061Z,600.00
2023-07-06T02:37:31.001Z,608.00
2023-07-06T02:38:31.061Z,605.00
2023-07-06T02:39:31.100Z,604.00
2023-07-06T02:40:31.186Z,602.00
2023-07-06T02:41:31.228Z,600.00
2023-07-06T02:42:31.300Z,606.00
2023-07-06T02:43:31.348Z,603.00
2023-07-06T02:44:31.369Z,606.00
2023-07-06T02:45:31.409Z,602.00
2023-07-06T02:46:31.565Z,602.00
2023-07-06T02:47:31.536Z,603.00
2023-07-06T02:48:31.607Z,602.00
2023-07-06T02:49:31.674Z,602.00
2023-07-06T02:50:31.728Z,600.00
2023-07-06T02:51:31.773Z,602.00
2023-07-06T02:52:31.802Z,605.00
2023-07-06T02:53:31.883Z,603.00
2023-07-06T02:54:31.906Z,603.00
2023-07-06T02:55:31.934Z,601.00
2023-07-06T02:56:32.029Z,609.00
2023-07-06T02:57:32.087Z,604.00
2023-07-06T02:58:32.097Z,608.00
2023-07-06T02:59:32.210Z,606.00
2023-07-06T03:00:32.201Z,608.00
2023-07-06T03:01:32.284Z,606.00
2023-07-06T03:02:32.396Z,604.00
2023-07-06T03:03:32.370Z,604.00
2023-07-06T03:04:32.432Z,606.00
2023-07-06T03:05:32.514Z,604.00
2023-07-06T03:06:32.503Z,608.00
2023-07-06T03:07:32.544Z,607.00
2023-07-06T03:08:32.589Z,603.00
2023-07-06T03:09:32.635Z,601.00
2023-07-06T03:10:32.676Z,601.00
2023-07-06T03:11:32.718Z,604.00
2023-07-06T03:12:32.783Z,603.00
2023-07-06T03:13:32.914Z,602.00
2023-07-06T03:14:32.876Z,603.00
2023-07-06T03:15:32.926Z,603.00
2023-07-06T03:16:32.998Z,603.00
2023-07-06T03:17:33.053Z,603.00
2023-07-06T03:18:33.118Z,601.00
2023-07-06T03:19:33.111Z,605.00
2023-07-06T03:20:33.130Z,603.00
2023-07-06T03:21:33.180Z,604.00
2023-07-06T03:22:33.263Z,604.00
2023-07-06T03:23:33.340Z,604.00
2023-07-06T03:24:34.700Z,603.00
2023-07-06T03:25:33.422Z,603.00
2023-07-06T03:26:33.491Z,600.00
2023-07-06T03:27:33.519Z,605.00
2023-07-06T03:28:33.564Z,602.00
2023-07-06T03:29:33.620Z,607.00
2023-07-06T03:30:33.646Z,604.00
2023-07-06T03:31:33.930Z,604.00
2023-07-06T03:32:33.863Z,605.00
2023-07-06T03:33:33.846Z,603.00
2023-07-06T03:34:33.855Z,603.00
2023-07-06T03:35:34.008Z,600.00
2023-07-06T03:36:33.975Z,600.00
2023-07-06T03:37:34.027Z,600.00
2023-07-06T03:38:34.066Z,603.00
2023-07-06T03:39:34.128Z,607.00
2023-07-06T03:40:34.178Z,604.00
2023-07-06T03:41:34.174Z,601.00
2023-07-06T03:42:34.209Z,602.00
2023-07-06T03:43:34.269Z,608.00
2023-07-06T03:44:34.249Z,606.00
2023-07-06T03:45:34.358Z,603.00
2023-07-06T03:46:34.351Z,605.00
2023-07-06T03:47:34.357Z,605.00
2023-07-06T03:48:34.328Z,604.00
2023-07-06T03:49:34.386Z,606.00
2023-07-06T03:50:34.398Z,605.00
2023-07-06T03:51:34.465Z,607.00
2023-07-06T03:52:34.488Z,601.00
2023-07-06T03:53:34.533Z,601.00
2023-07-06T03:54:34.567Z,602.00
2023-07-06T03:55:34.634Z,608.00
2023-07-06T03:56:34.661Z,606.00
2023-07-06T03:57:34.689Z,608.00
2023-07-06T03:58:34.710Z,605.00
2023-07-06T03:59:35.532Z,605.00
2023-07-06T04:00:34.792Z,605.00
2023-07-06T04:01:34.862Z,605.00
2023-07-06T04:02:34.935Z,604.00
2023-07-06T04:03:35.019Z,607.00
2023-07-06T04:04:34.960Z,603.00
2023-07-06T04:05:35.007Z,604.00
2023-07-06T04:06:35.037Z,601.00
2023-07-06T04:07:35.068Z,601.00
2023-07-06T04:08:35.087Z,604.00
2023-07-06T04:09:35.137Z,606.00
2023-07-06T04:10:35.231Z,600.00
2023-07-06T04:11:35.224Z,606.00
2023-07-06T04:12:35.264Z,600.00
2023-07-06T04:13:35.392Z,603.00
2023-07-06T04:14:35.333Z,603.00
2023-07-06T04:15:35.379Z,603.00
2023-07-06T04:16:35.516Z,603.00
2023-07-06T04:17:35.488Z,600.00
2023-07-06T04:18:35.475Z,607.00
2023-07-06T04:19:35.527Z,605.00
2023-07-06T04:20:35.777Z,601.00
2023-07-06T04:21:35.540Z,602.00
2023-07-06T04:22:35.612Z,606.00
2023-07-06T04:23:35.630Z,603.00
2023-07-06T04:24:35.612Z,607.00
2023-07-06T04:25:35.666Z,607.00
2023-07-06T04:26:35.663Z,601.00
2023-07-06T04:27:35.694Z,600.00
2023-07-06T04:28:35.731Z,602.00
2023-07-06T04:29:35.768Z,604.00
2023-07-06T04:30:35.757Z,602.00
2023-07-06T04:31:35.829Z,602.00
2023-07-06T04:32:35.820Z,601.00
2023-07-06T04:33:35.797Z,604.00
2023-07-06T04:34:35.796Z,604.00
2023-07-06T04:35:37.582Z,604.00
2023-07-06T04:36:35.822Z,607.00
2023-07-06T04:37:35.779Z,608.00
2023-07-06T04:38:35.818Z,602.00
2023-07-06T04:39:35.747Z,606.00
2023-07-06T04:40:35.706Z,605.00
2023-07-06T04:41:35.676Z,605.00
2023-07-06T04:42:35.631Z,600.00
2023-07-06T04:43:35.599Z,601.00
2023-07-06T04:44:35.622Z,604.00
2023-07-06T04:45:35.608Z,604.00
2023-07-06T04:46:35.641Z,604.00
2023-07-06T04:47:35.614Z,603.00
2023-07-06T04:48:35.480Z,603.00
2023-07-06T04:49:35.508Z,603.00
2023-07-06T04:50:35.439Z,603.00
2023-07-06T04:51:35.456Z,603.00
2023-07-06T04:52:35.399Z,601.00
2023-07-06T04:53:35.389Z,602.00
2023-07-06T04:54:35.357Z,603.00
2023-07-06T04:55:35.309Z,605.00
2023-07-06T04:56:35.300Z,603.00
2023-07-06T04:57:35.257Z,600.00
2023-07-06T04:58:35.218Z,602.00
2023-07-06T04:59:35.194Z,602.00
2023-07-06T05:00:35.196Z,604.00
2023-07-06T05:01:35.156Z,603.00
2023-07-06T05:02:35.147Z,605.00
2023-07-06T05:03:35.118Z,602.00
2023-07-06T05:04:35.074Z,602.00
2023-07-06T05:05:35.053Z,603.00
2023-07-06T05:06:35.008Z,607.00
2023-07-06T05:07:34.956Z,606.00
2023-07-06T05:08:34.924Z,606.00
2023-07-06T05:09:34.952Z,603.00
2023-07-06T05:10:34.886Z,604.00
2023-07-06T05:11:34.850Z,606.00
2023-07-06T05:12:34.845Z,607.00
2023-07-06T05:13:34.838Z,604.00
2023-07-06T05:14:34.801Z,608.00
2023-07-06T05:15:34.773Z,607.00
2023-07-06T05:16:34.823Z,604.00
2023-07-06T05:17:34.772Z,606.00
2023-07-06T05:18:34.680Z,604.00
2023-07-06T05:19:34.690Z,608.00
2023-07-06T05:20:34.662Z,604.00
2023-07-06T05:21:34.602Z,607.00
2023-07-06T05:22:34.569Z,604.00
2023-07-06T05:23:34.575Z,607.00
2023-07-06T05:24:34.516Z,605.00
2023-07-06T05:25:34.529Z,608.00
2023-07-06T05:26:34.487Z,602.00
2023-07-06T05:27:34.464Z,603.00
2023-07-06T05:28:34.446Z,602.00
2023-07-06T05:29:34.416Z,601.00
2023-07-06T05:30:34.431Z,603.00
2023-07-06T05:31:34.390Z,608.00
2023-07-06T05:32:34.421Z,606.00
2023-07-06T05:33:34.595Z,606.00
2023-07-06T05:34:34.432Z,602.00
2023-07-06T05:35:34.435Z,602.00
2023-07-06T05:36:34.433Z,616.00
2023-07-06T05:37:36.081Z,623.00
2023-07-06T05:38:34.551Z,606.00
2023-07-06T05:39:34.561Z,605.00
2023-07-06T05:40:34.567Z,606.00
2023-07-06T05:41:34.582Z,598.00
2023-07-06T05:42:34.593Z,600.00
2023-07-06T05:43:34.602Z,600.00
2023-07-06T05:44:34.601Z,608.00
2023-07-06T05:45:34.583Z,604.00
2023-07-06T05:46:34.632Z,600.00
2023-07-06T05:47:34.536Z,600.00
2023-07-06T05:48:34.518Z,600.00
2023-07-06T05:49:34.516Z,602.00
2023-07-06T05:50:34.525Z,600.00
2023-07-06T05:51:34.537Z,600.00
2023-07-06T05:52:34.563Z,605.00
2023-07-06T05:53:34.544Z,600.00
2023-07-06T05:54:34.552Z,604.00
2023-07-06T05:55:34.580Z,603.00
2023-07-06T05:56:34.588Z,600.00
2023-07-06T05:57:34.633Z,616.00
2023-07-06T05:58:34.642Z,623.00
2023-07-06T05:59:34.644Z,626.00
2023-07-06T06:00:34.641Z,637.00
2023-07-06T06:01:35.979Z,644.00
2023-07-06T06:02:34.674Z,658.00
2023-07-06T06:03:34.618Z,656.00
2023-07-06T06:04:34.665Z,644.00
2023-07-06T06:05:34.634Z,649.00
2023-07-06T06:06:34.582Z,647.00
2023-07-06T06:07:34.632Z,659.00
2023-07-06T06:08:34.606Z,662.00
2023-07-06T06:09:34.602Z,667.00
2023-07-06T06:10:34.642Z,667.00
2023-07-06T06:11:34.546Z,665.00
2023-07-06T06:12:34.570Z,662.00
2023-07-06T06:13:34.537Z,671.00
2023-07-06T06:14:34.526Z,668.00
2023-07-06T06:15:34.604Z,672.00
2023-07-06T06:16:34.601Z,676.00
2023-07-06T06:17:34.560Z,663.00
2023-07-06T06:18:34.505Z,666.00
2023-07-06T06:19:34.466Z,666.00
2023-07-06T06:20:34.462Z,662.00
2023-07-06T06:21:34.439Z,659.00
2023-07-06T06:22:34.497Z,659.00
2023-07-06T06:23:34.456Z,662.00
2023-07-06T06:24:34.454Z,657.00
2023-07-06T06:25:34.449Z,658.00
2023-07-06T06:26:34.448Z,655.00
2023-07-06T06:27:34.430Z,654.00
2023-07-06T06:28:34.418Z,655.00
2023-07-06T06:29:34.427Z,652.00
2023-07-06T06:30:34.393Z,654.00
2023-07-06T06:31:34.448Z,654.00
2023-07-06T06:32:34.396Z,644.00
2023-07-06T06:33:34.361Z,648.00
2023-07-06T06:34:34.405Z,650.00
2023-07-06T06:35:34.396Z,652.00
2023-07-06T06:36:34.383Z,645.00
2023-07-06T06:37:34.368Z,645.00
2023-07-06T06:38:34.341Z,644.00
2023-07-06T06:39:34.323Z,645.00
2023-07-06T06:40:34.317Z,645.00
2023-07-06T06:41:34.330Z,642.00
2023-07-06T06:42:34.331Z,645.00
2023-07-06T06:43:34.262Z,645.00
2023-07-06T06:44:34.316Z,645.00
2023-07-06T06:45:34.261Z,645.00
2023-07-06T06:46:34.338Z,642.00
2023-07-06T06:47:34.280Z,639.00
2023-07-06T06:48:34.222Z,645.00
2023-07-06T06:49:34.291Z,641.00
2023-07-06T06:50:34.236Z,638.00
2023-07-06T06:51:34.213Z,640.00
2023-07-06T06:52:34.172Z,634.00
2023-07-06T06:53:34.164Z,636.00
2023-07-06T06:54:34.283Z,637.00
2023-07-06T06:55:34.142Z,637.00
2023-07-06T06:56:34.133Z,642.00
2023-07-06T06:57:34.148Z,641.00
2023-07-06T06:58:34.118Z,643.00
2023-07-06T06:59:34.586Z,641.00
2023-07-06T07:00:34.099Z,634.00
2023-07-06T07:01:34.132Z,639.00
2023-07-06T07:02:34.112Z,641.00
2023-07-06T07:03:34.085Z,645.00
2023-07-06T07:04:34.083Z,640.00
2023-07-06T07:05:34.034Z,642.00
2023-07-06T07:06:33.993Z,641.00
2023-07-06T07:07:34.006Z,640.00
2023-07-06T07:08:34.010Z,634.00
2023-07-06T07:09:34.004Z,634.00
2023-07-06T07:10:33.965Z,636.00
2023-07-06T07:11:33.919Z,641.00
2023-07-06T07:12:33.935Z,641.00
2023-07-06T07:13:33.930Z,634.00
2023-07-06T07:14:33.910Z,632.00
2023-07-06T07:15:33.879Z,629.00
2023-07-06T07:16:33.895Z,632.00
2023-07-06T07:17:33.916Z,629.00
2023-07-06T07:18:33.859Z,631.00
2023-07-06T07:19:33.863Z,633.00
2023-07-06T07:20:33.808Z,632.00
2023-07-06T07:21:33.857Z,629.00
2023-07-06T07:22:33.830Z,623.00
2023-07-06T07:23:33.842Z,622.00
2023-07-06T07:24:34.054Z,620.00
2023-07-06T07:25:33.865Z,617.00
2023-07-06T07:26:33.875Z,620.00
2023-07-06T07:27:33.865Z,624.00
2023-07-06T07:28:33.882Z,623.00
2023-07-06T07:29:33.905Z,622.00
2023-07-06T07:30:33.899Z,622.00
2023-07-06T07:31:33.922Z,622.00
2023-07-06T07:32:33.922Z,623.00
2023-07-06T07:33:33.901Z,619.00
2023-07-06T07:34:33.929Z,623.00
2023-07-06T07:35:33.964Z,623.00
2023-07-06T07:36:35.177Z,622.00
2023-07-06T07:37:34.005Z,627.00
2023-07-06T07:38:33.932Z,629.00
2023-07-06T07:39:33.948Z,625.00
2023-07-06T07:40:33.950Z,620.00
2023-07-06T07:41:33.951Z,616.00
2023-07-06T07:42:33.924Z,614.00
2023-07-06T07:43:33.965Z,610.00
2023-07-06T07:44:33.989Z,614.00
2023-07-06T07:45:33.995Z,613.00
2023-07-06T07:46:34.183Z,602.00
2023-07-06T07:47:33.985Z,600.00
2023-07-06T07:48:34.028Z,601.00
2023-07-06T07:49:33.978Z,601.00
2023-07-06T07:50:33.991Z,604.00
2023-07-06T07:51:34.030Z,600.00
2023-07-06T07:52:34.016Z,600.00
2023-07-06T07:53:34.026Z,606.00
2023-07-06T07:54:34.050Z,600.00
2023-07-06T07:55:34.027Z,605.00
2023-07-06T07:56:34.085Z,602.00
2023-07-06T07:57:34.066Z,601.00
2023-07-06T07:58:34.153Z,603.00
2023-07-06T07:59:34.085Z,595.00
2023-07-06T08:00:34.093Z,600.00
2023-07-06T08:01:34.129Z,601.00
2023-07-06T08:02:34.174Z,601.00
2023-07-06T08:03:34.227Z,601.00
2023-07-06T08:04:34.207Z,601.00
2023-07-06T08:05:34.153Z,604.00
2023-07-06T08:06:34.201Z,605.00
2023-07-06T08:07:34.218Z,610.00
2023-07-06T08:08:34.213Z,612.00
2023-07-06T08:09:34.226Z,611.00
2023-07-06T08:10:34.269Z,613.00
2023-07-06T08:11:34.281Z,609.00
2023-07-06T08:12:35.144Z,609.00
2023-07-06T08:13:34.387Z,618.00
2023-07-06T08:14:34.297Z,621.00
2023-07-06T08:15:34.332Z,622.00
2023-07-06T08:16:34.437Z,625.00
2023-07-06T08:17:34.374Z,624.00
2023-07-06T08:18:34.389Z,627.00
2023-07-06T08:19:50.001Z,628.00
2023-07-06T08:21:22.461Z,628.00
2023-07-06T08:21:40.311Z,629.00
2023-07-06T08:22:35.293Z,629.00
2023-07-06T08:23:34.241Z,632.00
2023-07-06T08:24:34.243Z,635.00
2023-07-06T08:25:34.208Z,640.00
2023-07-06T08:26:34.181Z,646.00
2023-07-06T08:27:34.165Z,651.00
2023-07-06T08:28:34.150Z,651.00
2023-07-06T08:29:34.131Z,651.00
2023-07-06T08:30:34.097Z,649.00
2023-07-06T08:31:34.157Z,643.00
2023-07-06T08:32:34.107Z,642.00
2023-07-06T08:33:34.029Z,634.00
2023-07-06T08:34:34.047Z,640.00
2023-07-06T08:35:34.007Z,638.00
2023-07-06T08:36:33.965Z,637.00
2023-07-06T08:37:33.934Z,635.00
2023-07-06T08:38:33.968Z,636.00
2023-07-06T08:39:33.905Z,637.00
2023-07-06T08:40:33.913Z,638.00
2023-07-06T08:41:33.884Z,638.00
2023-07-06T08:42:33.850Z,636.00
2023-07-06T08:43:33.826Z,632.00
2023-07-06T08:44:33.798Z,637.00
2023-07-06T08:45:33.740Z,638.00
2023-07-06T08:46:33.793Z,647.00
2023-07-06T08:47:33.717Z,647.00
2023-07-06T08:48:33.666Z,651.00
2023-07-06T08:49:33.715Z,651.00
2023-07-06T08:50:33.607Z,655.00
2023-07-06T08:51:33.603Z,661.00
2023-07-06T08:52:33.563Z,663.00
2023-07-06T08:53:33.549Z,663.00
2023-07-06T08:54:33.543Z,663.00
2023-07-06T08:55:33.487Z,663.00
2023-07-06T08:56:33.504Z,662.00
2023-07-06T08:57:33.454Z,662.00
2023-07-06T08:58:33.416Z,656.00
2023-07-06T08:59:33.465Z,655.00
2023-07-06T09:00:33.439Z,656.00
2023-07-06T09:01:33.420Z,654.00
2023-07-06T09:02:33.331Z,636.00
2023-07-06T09:03:33.333Z,626.00
2023-07-06T09:04:33.258Z,635.00
2023-07-06T09:05:33.237Z,638.00
2023-07-06T09:06:33.225Z,641.00
2023-07-06T09:07:33.181Z,638.00
2023-07-06T09:08:33.217Z,637.00
2023-07-06T09:09:33.142Z,642.00
2023-07-06T09:10:33.114Z,646.00
2023-07-06T09:11:33.122Z,649.00
2023-07-06T09:12:33.019Z,646.00
2023-07-06T09:13:33.035Z,647.00
2023-07-06T09:14:33.003Z,647.00
2023-07-06T09:16:33.381Z,648.00
2023-07-06T09:17:32.971Z,656.00
2023-07-06T09:18:32.899Z,660.00
2023-07-06T09:19:32.871Z,659.00
2023-07-06T09:20:32.850Z,662.00
2023-07-06T09:21:32.807Z,659.00
2023-07-06T09:22:32.779Z,661.00
2023-07-06T09:23:32.783Z,663.00
2023-07-06T09:24:32.728Z,666.00
2023-07-06T09:25:32.757Z,681.00
2023-07-06T09:26:34.097Z,690.00
2023-07-06T09:27:32.726Z,671.00
2023-07-06T09:28:32.644Z,680.00
2023-07-06T09:29:32.643Z,678.00
2023-07-06T09:30:32.751Z,670.00
2023-07-06T09:31:32.710Z,678.00
2023-07-06T09:32:32.790Z,683.00
2023-07-06T09:33:33.175Z,689.00
2023-07-06T09:34:32.856Z,686.00
2023-07-06T09:35:32.872Z,687.00
2023-07-06T09:36:32.922Z,693.00
2023-07-06T09:37:32.944Z,700.00
2023-07-06T09:38:32.977Z,701.00
2023-07-06T09:39:33.048Z,687.00
2023-07-06T09:40:34.128Z,678.00
2023-07-06T09:41:33.102Z,676.00
2023-07-06T09:42:33.187Z,684.00
2023-07-06T09:43:33.270Z,687.00
2023-07-06T09:44:33.239Z,689.00
2023-07-06T09:45:33.317Z,691.00
2023-07-06T09:46:33.476Z,698.00
2023-07-06T09:47:33.435Z,705.00
2023-07-06T09:48:33.456Z,722.00
2023-07-06T09:49:33.443Z,708.00
2023-07-06T09:50:33.464Z,694.00
2023-07-06T09:51:33.551Z,686.00
2023-07-06T09:52:33.548Z,699.00
2023-07-06T09:53:33.566Z,696.00
2023-07-06T09:54:33.589Z,715.00
2023-07-06T09:55:33.623Z,717.00
2023-07-06T09:56:33.669Z,727.00
2023-07-06T09:57:33.683Z,707.00
2023-07-06T09:58:33.736Z,694.00
2023-07-06T09:59:33.760Z,708.00
2023-07-06T10:00:33.803Z,705.00
2023-07-06T10:01:33.965Z,722.00
2023-07-06T10:02:33.883Z,724.00
2023-07-06T10:03:33.880Z,713.00
2023-07-06T10:04:33.985Z,723.00
2023-07-06T10:05:34.309Z,723.00
2023-07-06T10:06:34.010Z,745.00
2023-07-06T10:07:34.068Z,748.00
2023-07-06T10:08:34.112Z,744.00
2023-07-06T10:09:34.167Z,738.00
2023-07-06T10:10:34.202Z,747.00
2023-07-06T10:11:34.202Z,747.00
2023-07-06T10:12:34.257Z,755.00
2023-07-06T10:13:34.361Z,760.00
2023-07-06T10:14:34.351Z,751.00
2023-07-06T10:15:34.358Z,759.00
2023-07-06T10:16:34.436Z,755.00
2023-07-06T10:17:34.459Z,753.00
2023-07-06T10:18:34.496Z,749.00
2023-07-06T10:19:34.561Z,744.00
2023-07-06T10:20:34.601Z,741.00
2023-07-06T10:21:34.621Z,750.00
2023-07-06T10:22:34.612Z,751.00
2023-07-06T10:23:34.657Z,739.00
2023-07-06T10:24:34.682Z,746.00
2023-07-06T10:25:34.823Z,734.00
2023-07-06T10:26:34.755Z,730.00
2023-07-06T10:27:34.807Z,725.00
2023-07-06T10:28:34.897Z,747.00
2023-07-06T10:29:34.858Z,744.00
2023-07-06T10:30:34.926Z,735.00
2023-07-06T10:31:34.984Z,734.00
2023-07-06T10:32:34.996Z,741.00
2023-07-06T10:33:35.017Z,739.00
2023-07-06T10:34:35.060Z,730.00
2023-07-06T10:35:35.094Z,734.00
2023-07-06T10:36:35.115Z,722.00
2023-07-06T10:37:35.137Z,713.00
2023-07-06T10:38:35.178Z,721.00
2023-07-06T10:39:35.195Z,724.00
2023-07-06T10:40:35.226Z,724.00
2023-07-06T10:41:35.297Z,717.00
2023-07-06T10:42:35.302Z,713.00
2023-07-06T10:43:35.331Z,720.00
2023-07-06T10:44:35.343Z,711.00
2023-07-06T10:45:35.335Z,718.00
2023-07-06T10:46:35.565Z,717.00
2023-07-06T10:47:35.421Z,719.00
2023-07-06T10:48:35.722Z,718.00
2023-07-06T10:49:35.441Z,707.00
2023-07-06T10:50:35.450Z,717.00
2023-07-06T10:51:35.432Z,720.00
2023-07-06T10:52:35.465Z,713.00
2023-07-06T10:53:35.485Z,715.00
2023-07-06T10:54:35.517Z,713.00
2023-07-06T10:55:35.518Z,717.00
2023-07-06T10:56:35.517Z,719.00
2023-07-06T10:57:35.503Z,715.00
2023-07-06T10:58:35.548Z,718.00
2023-07-06T10:59:35.544Z,725.00
2023-07-06T11:00:35.574Z,712.00
2023-07-06T11:01:35.568Z,717.00
2023-07-06T11:02:35.662Z,721.00
2023-07-06T11:03:35.576Z,727.00
2023-07-06T11:04:35.580Z,721.00
2023-07-06T11:05:37.538Z,727.00
2023-07-06T11:06:35.736Z,718.00
2023-07-06T11:07:36.592Z,719.00
2023-07-06T11:08:35.528Z,721.00
2023-07-06T11:09:35.510Z,722.00
2023-07-06T11:10:35.485Z,725.00
2023-07-06T11:11:35.469Z,728.00
2023-07-06T11:12:35.387Z,728.00
2023-07-06T11:13:35.409Z,730.00
2023-07-06T11:14:35.353Z,727.00
2023-07-06T11:15:35.344Z,734.00
2023-07-06T11:16:35.307Z,732.00
2023-07-06T11:17:35.286Z,729.00
2023-07-06T11:18:35.219Z,728.00
2023-07-06T11:19:35.238Z,731.00
2023-07-06T11:20:35.235Z,730.00
2023-07-06T11:21:35.238Z,730.00
2023-07-06T11:22:35.303Z,728.00
2023-07-06T11:23:35.289Z,729.00
2023-07-06T11:24:35.261Z,732.00
2023-07-06T11:25:35.286Z,725.00
2023-07-06T11:26:35.277Z,728.00
2023-07-06T11:27:35.295Z,730.00
2023-07-06T11:28:35.311Z,738.00
2023-07-06T11:29:35.320Z,741.00
2023-07-06T11:30:35.335Z,735.00
2023-07-06T11:31:35.394Z,735.00
2023-07-06T11:32:35.393Z,739.00
2023-07-06T11:33:35.366Z,739.00
2023-07-06T11:34:38.122Z,733.00
2023-07-06T11:35:35.385Z,748.00
2023-07-06T11:36:35.366Z,741.00
2023-07-06T11:37:45.368Z,740.00
2023-07-06T11:38:36.328Z,741.00
2023-07-06T11:39:35.302Z,741.00
2023-07-06T11:40:35.323Z,741.00
2023-07-06T11:41:35.263Z,738.00
2023-07-06T11:42:35.232Z,738.00
2023-07-06T11:43:35.220Z,740.00
2023-07-06T11:44:35.202Z,729.00
2023-07-06T11:45:35.181Z,730.00
2023-07-06T11:46:35.217Z,725.00
2023-07-06T11:47:35.240Z,731.00
2023-07-06T11:48:35.131Z,722.00
2023-07-06T11:49:35.098Z,725.00
2023-07-06T11:50:35.084Z,726.00
2023-07-06T11:51:35.045Z,721.00
2023-07-06T11:52:35.048Z,729.00
2023-07-06T11:53:35.052Z,730.00
2023-07-06T11:54:35.005Z,724.00
2023-07-06T11:55:34.979Z,724.00
2023-07-06T11:56:34.967Z,723.00
2023-07-06T11:57:34.964Z,724.00
2023-07-06T11:58:34.980Z,720.00
2023-07-06T11:59:34.906Z,721.00
2023-07-06T12:00:34.892Z,719.00
2023-07-06T12:01:34.909Z,717.00
2023-07-06T12:02:34.900Z,715.00
2023-07-06T12:03:34.915Z,718.00
2023-07-06T12:04:34.826Z,714.00
2023-07-06T12:05:34.896Z,710.00
2023-07-06T12:06:34.776Z,718.00
2023-07-06T12:07:34.751Z,713.00
2023-07-06T12:08:34.782Z,713.00
2023-07-06T12:09:34.728Z,714.00
2023-07-06T12:10:34.757Z,708.00
2023-07-06T12:11:34.746Z,712.00
2023-07-06T12:12:34.755Z,715.00
2023-07-06T12:13:34.767Z,707.00
2023-07-06T12:14:34.745Z,706.00
2023-07-06T12:15:34.810Z,708.00
2023-07-06T12:16:34.891Z,704.00
2023-07-06T12:17:34.726Z,698.00
2023-07-06T12:18:34.725Z,659.00
2023-07-06T12:19:34.696Z,625.00
2023-07-06T12:20:34.700Z,639.00
2023-07-06T12:21:34.747Z,655.00
2023-07-06T12:22:34.680Z,658.00
2023-07-06T12:23:34.700Z,657.00
2023-07-06T12:24:34.686Z,651.00
2023-07-06T12:25:34.705Z,648.00
2023-07-06T12:26:34.664Z,643.00
2023-07-06T12:27:34.695Z,642.00
2023-07-06T12:28:34.729Z,637.00
2023-07-06T12:29:34.671Z,646.00
2023-07-06T12:30:34.689Z,648.00